createdAt,value
2023-04-23T00:01:20.787Z,97648.45
2023-04-23T00:03:50.883Z,97648.31
2023-04-23T00:06:19.947Z,97652.08
2023-04-23T00:08:48.216Z,97653.46
2023-04-23T00:11:16.909Z,97657.77
2023-04-23T00:13:47.083Z,97657.73
2023-04-23T00:16:16.140Z,97660.79
2023-04-23T00:18:44.550Z,97661.80
2023-04-23T00:21:12.964Z,97661.23
2023-04-23T00:23:41.514Z,97657.24
2023-04-23T00:26:09.866Z,97655.39
2023-04-23T00:28:38.321Z,97653.67
2023-04-23T00:31:07.825Z,97652.55
2023-04-23T00:33:36.914Z,97654.68
2023-04-23T00:36:05.529Z,97654.08
2023-04-23T00:38:33.780Z,97655.48
2023-04-23T00:41:02.056Z,97651.17
2023-04-23T00:43:31.417Z,97652.03
2023-04-23T00:46:00.364Z,97651.73
2023-04-23T00:48:29.555Z,97653.80
2023-04-23T00:51:05.378Z,97651.84
2023-04-23T00:53:34.252Z,97652.46
2023-04-23T00:56:05.565Z,97653.23
2023-04-23T00:58:34.724Z,97654.70
2023-04-23T01:01:04.819Z,97651.13
2023-04-23T01:03:36.677Z,97649.22
2023-04-23T01:06:05.712Z,97647.85
2023-04-23T01:08:35.235Z,97646.93
2023-04-23T01:11:04.071Z,97647.93
2023-04-23T01:13:32.894Z,97645.43
2023-04-23T01:16:01.772Z,97646.30
2023-04-23T01:18:30.727Z,97643.98
2023-04-23T01:20:59.227Z,97644.70
2023-04-23T01:23:28.236Z,97644.48
2023-04-23T01:25:56.910Z,97643.38
2023-04-23T01:28:25.743Z,97644.23
2023-04-23T01:30:54.549Z,97643.41
2023-04-23T01:33:25.097Z,97645.70
2023-04-23T01:35:55.270Z,97648.48
2023-04-23T01:38:25.397Z,97642.14
2023-04-23T01:40:54.455Z,97640.63
2023-04-23T01:43:23.381Z,97644.11
2023-04-23T01:45:52.915Z,97644.28
2023-04-23T01:48:21.648Z,97645.50
2023-04-23T01:50:51.035Z,97645.92
2023-04-23T01:53:19.639Z,97648.16
2023-04-23T01:55:49.127Z,97651.36
2023-04-23T01:58:17.541Z,97651.98
2023-04-23T02:00:46.396Z,97655.25
2023-04-23T02:03:15.092Z,97659.82
2023-04-23T02:05:43.991Z,97658.05
2023-04-23T02:08:12.515Z,97657.12
2023-04-23T02:10:40.996Z,97654.52
2023-04-23T02:13:10.542Z,97652.61
2023-04-23T02:15:40.737Z,97651.08
2023-04-23T02:18:09.121Z,97650.56
2023-04-23T02:20:40.762Z,97651.27
2023-04-23T02:23:09.417Z,97647.86
2023-04-23T02:25:41.050Z,97644.54
2023-04-23T02:28:13.462Z,97648.67
2023-04-23T02:30:46.177Z,97644.05
2023-04-23T02:33:14.584Z,97642.77
2023-04-23T02:35:42.847Z,97642.04
2023-04-23T02:38:11.174Z,97643.39
2023-04-23T02:40:39.492Z,97641.38
2023-04-23T02:43:07.809Z,97645.30
2023-04-23T02:45:36.072Z,97644.20
2023-04-23T02:48:04.677Z,97646.21
2023-04-23T02:50:33.063Z,97645.02
2023-04-23T02:53:01.442Z,97641.54
2023-04-23T02:55:32.073Z,97641.27
2023-04-23T02:58:00.920Z,97642.14
2023-04-23T03:00:29.609Z,97642.68
2023-04-23T03:02:58.407Z,97639.45
2023-04-23T03:05:26.818Z,97635.94
2023-04-23T03:07:55.136Z,97635.57
2023-04-23T03:10:23.358Z,97637.94
2023-04-23T03:12:51.653Z,97640.63
2023-04-23T03:15:19.988Z,97643.45
2023-04-23T03:17:48.794Z,97645.83
2023-04-23T03:20:17.346Z,97646.83
2023-04-23T03:22:46.362Z,97644.25
2023-04-23T03:25:14.954Z,97645.71
2023-04-23T03:27:44.134Z,97648.39
2023-04-23T03:30:12.719Z,97654.73
2023-04-23T03:32:41.534Z,97656.19
2023-04-23T03:35:10.815Z,97651.17
2023-04-23T03:37:41.318Z,97651.11
2023-04-23T03:40:10.293Z,97657.45
2023-04-23T03:42:40.570Z,97659.83
2023-04-23T03:45:10.005Z,97656.41
2023-04-23T03:47:38.377Z,97656.96
2023-04-23T03:50:09.178Z,97658.45
2023-04-23T03:52:37.574Z,97659.46
2023-04-23T03:55:07.590Z,97663.14
2023-04-23T03:57:42.221Z,97666.00
2023-04-23T04:00:21.908Z,97668.72
2023-04-23T04:02:50.379Z,97671.66
2023-04-23T04:05:19.731Z,97673.85
2023-04-23T04:07:48.361Z,97673.30
2023-04-23T04:10:18.773Z,97672.51
2023-04-23T04:12:48.156Z,97676.91
2023-04-23T04:15:17.790Z,97678.73
2023-04-23T04:17:46.221Z,97677.52
2023-04-23T04:20:14.516Z,97677.77
2023-04-23T04:22:42.802Z,97677.15
2023-04-23T04:25:10.958Z,97678.87
2023-04-23T04:27:39.247Z,97686.77
2023-04-23T04:30:09.131Z,97689.99
2023-04-23T04:32:39.010Z,97689.96
2023-04-23T04:35:09.171Z,97692.35
2023-04-23T04:37:37.676Z,97693.30
2023-04-23T04:40:07.794Z,97697.60
2023-04-23T04:42:36.521Z,97705.69
2023-04-23T04:45:06.259Z,97702.21
2023-04-23T04:47:34.814Z,97708.05
2023-04-23T04:50:04.085Z,97718.99
2023-04-23T04:52:32.471Z,97718.17
2023-04-23T04:55:00.898Z,97719.27
2023-04-23T04:57:29.325Z,97722.29
2023-04-23T04:59:57.669Z,97721.70
2023-04-23T05:02:26.806Z,97720.56
2023-04-23T05:04:55.351Z,97721.81
2023-04-23T05:07:23.673Z,97717.89
2023-04-23T05:09:51.955Z,97723.94
2023-04-23T05:12:20.371Z,97726.86
2023-04-23T05:14:48.727Z,97729.27
2023-04-23T05:17:17.232Z,97730.21
2023-04-23T05:19:45.505Z,97739.33
2023-04-23T05:22:14.438Z,97742.67
2023-04-23T05:24:43.064Z,97746.08
2023-04-23T05:27:11.770Z,97746.21
2023-04-23T05:29:41.343Z,97753.67
2023-04-23T05:32:10.196Z,97755.33
2023-04-23T05:34:40.194Z,97752.09
2023-04-23T05:37:09.440Z,97754.35
2023-04-23T05:39:37.658Z,97752.16
2023-04-23T05:42:06.000Z,97751.98
2023-04-23T05:44:34.253Z,97751.18
2023-04-23T05:47:02.839Z,97750.02
2023-04-23T05:49:31.226Z,97752.33
2023-04-23T05:51:59.929Z,97755.82
2023-04-23T05:54:28.454Z,97756.63
2023-04-23T05:56:56.930Z,97751.23
2023-04-23T05:59:28.691Z,97749.71
2023-04-23T06:01:58.537Z,97756.03
2023-04-23T06:04:27.495Z,97753.99
2023-04-23T06:06:59.400Z,97753.73
2023-04-23T06:09:32.878Z,97749.25
2023-04-23T06:12:03.478Z,97745.29
2023-04-23T06:14:31.998Z,97746.01
2023-04-23T06:17:02.371Z,97749.48
2023-04-23T06:19:31.704Z,97749.06
2023-04-23T06:22:01.464Z,97753.59
2023-04-23T06:24:30.828Z,97753.61
2023-04-23T06:26:59.487Z,97750.96
2023-04-23T06:29:28.436Z,97751.98
2023-04-23T06:32:07.633Z,97754.15
2023-04-23T06:34:36.636Z,97755.99
2023-04-23T06:37:12.801Z,97755.17
2023-04-23T06:39:51.797Z,97751.75
2023-04-23T06:42:21.422Z,97751.08
2023-04-23T06:45:07.006Z,97750.34
2023-04-23T06:47:36.611Z,97752.13
2023-04-23T06:50:06.328Z,97751.45
2023-04-23T06:52:34.960Z,97752.30
2023-04-23T06:55:04.000Z,97749.08
2023-04-23T06:57:36.198Z,97750.53
2023-04-23T07:00:08.327Z,97745.15
2023-04-23T07:02:39.928Z,97746.75
2023-04-23T07:05:11.335Z,97743.04
2023-04-23T07:07:41.386Z,97737.80
2023-04-23T07:10:13.523Z,97741.60
2023-04-23T07:12:42.945Z,97741.02
2023-04-23T07:15:13.368Z,97738.36
2023-04-23T07:17:43.909Z,97737.63
2023-04-23T07:20:13.134Z,97737.35
2023-04-23T07:22:41.800Z,97739.46
2023-04-23T07:25:10.491Z,97740.02
2023-04-23T07:27:40.002Z,97743.27
2023-04-23T07:30:09.478Z,97745.27
2023-04-23T07:32:38.649Z,97746.80
2023-04-23T07:35:07.679Z,97747.17
2023-04-23T07:37:38.056Z,97742.86
2023-04-23T07:40:07.995Z,97741.92
2023-04-23T07:42:38.553Z,97744.23
2023-04-23T07:45:07.823Z,97744.45
2023-04-23T07:47:37.217Z,97745.77
2023-04-23T07:50:07.195Z,97747.05
2023-04-23T07:52:35.943Z,97750.54
2023-04-23T07:55:06.243Z,97747.93
2023-04-23T07:57:35.585Z,97745.34
2023-04-23T08:00:07.280Z,97748.13
2023-04-23T08:02:41.179Z,97747.74
2023-04-23T08:05:10.629Z,97746.17
2023-04-23T08:07:39.499Z,97743.02
2023-04-23T08:10:12.899Z,97746.70
2023-04-23T08:12:42.220Z,97742.70
2023-04-23T08:15:15.634Z,97746.42
2023-04-23T08:17:54.004Z,97748.14
2023-04-23T08:20:27.989Z,97747.20
2023-04-23T08:23:00.483Z,97748.86
2023-04-23T08:25:32.859Z,97750.16
2023-04-23T08:28:01.799Z,97745.27
2023-04-23T08:30:30.641Z,97744.30
2023-04-23T08:33:00.675Z,97745.02
2023-04-23T08:35:50.971Z,97741.40
2023-04-23T08:38:35.601Z,97741.29
2023-04-23T08:41:06.728Z,97742.70
2023-04-23T08:43:47.086Z,97736.30
2023-04-23T08:46:20.676Z,97733.20
2023-04-23T08:48:53.373Z,97735.06
2023-04-23T08:51:24.433Z,97738.52
2023-04-23T08:53:56.938Z,97736.77
2023-04-23T08:56:31.911Z,97729.95
2023-04-23T08:59:03.698Z,97722.98
2023-04-23T09:01:36.204Z,97719.62
2023-04-23T09:04:07.656Z,97719.45
2023-04-23T09:06:41.844Z,97720.13
2023-04-23T09:09:12.949Z,97719.14
2023-04-23T09:11:42.008Z,97718.75
2023-04-23T09:14:11.259Z,97716.41
2023-04-23T09:16:42.783Z,97708.77
2023-04-23T09:19:11.881Z,97709.61
2023-04-23T09:21:43.348Z,97709.19
2023-04-23T09:24:12.679Z,97708.20
2023-04-23T09:26:47.079Z,97703.13
2023-04-23T09:29:21.691Z,97702.23
2023-04-23T09:31:52.701Z,97701.36
2023-04-23T09:34:25.553Z,97699.20
2023-04-23T09:36:54.438Z,97694.16
2023-04-23T09:39:24.474Z,97694.27
2023-04-23T09:41:54.213Z,97692.80
2023-04-23T09:44:26.477Z,97690.29
2023-04-23T09:46:58.907Z,97686.94
2023-04-23T09:49:31.937Z,97684.21
2023-04-23T09:52:12.909Z,97679.13
2023-04-23T09:54:47.626Z,97680.27
2023-04-23T09:57:16.663Z,97675.65
2023-04-23T10:00:11.366Z,97675.31
2023-04-23T10:02:53.212Z,97676.46
2023-04-23T10:05:33.956Z,97674.80
2023-04-23T10:08:19.847Z,97670.45
2023-04-23T10:13:21.518Z,97665.56
2023-04-23T10:15:52.921Z,97661.25
2023-04-23T10:18:34.668Z,97659.91
2023-04-23T10:21:39.434Z,97656.30
2023-04-23T10:24:25.271Z,97653.94
2023-04-23T10:29:39.067Z,97643.82
2023-04-23T10:32:08.426Z,97638.36
2023-04-23T10:34:36.973Z,97636.39
2023-04-23T10:37:08.690Z,97632.16
2023-04-23T10:39:37.772Z,97631.30
2023-04-23T10:42:07.569Z,97631.19
2023-04-23T10:47:19.126Z,97623.63
2023-04-23T10:49:48.812Z,97622.28
2023-04-23T10:52:21.125Z,97617.08
2023-04-23T10:54:59.817Z,97612.92
2023-04-23T10:57:28.901Z,97605.15
2023-04-23T10:59:59.246Z,97596.20
2023-04-23T11:02:44.978Z,97587.81
2023-04-23T11:05:13.872Z,97589.79
2023-04-23T11:07:42.616Z,97588.11
2023-04-23T11:10:15.278Z,97585.52
2023-04-23T11:12:44.686Z,97583.60
2023-04-23T11:15:15.283Z,97584.65
2023-04-23T11:17:49.512Z,97583.05
2023-04-23T11:20:22.907Z,97577.96
2023-04-23T11:22:54.472Z,97577.58
2023-04-23T11:25:26.010Z,97574.91
2023-04-23T11:27:56.917Z,97577.75
2023-04-23T11:30:28.116Z,97579.97
2023-04-23T11:32:59.793Z,97575.77
2023-04-23T11:35:30.524Z,97584.22
2023-04-23T11:37:59.086Z,97582.34
2023-04-23T11:40:30.596Z,97581.89
2023-04-23T11:42:59.168Z,97579.40
2023-04-23T11:45:29.401Z,97579.19
2023-04-23T11:48:00.928Z,97576.47
2023-04-23T11:50:33.182Z,97575.44
2023-04-23T11:53:07.511Z,97572.38
2023-04-23T11:55:36.846Z,97573.16
2023-04-23T11:58:05.999Z,97572.69
2023-04-23T12:00:34.434Z,97576.80
2023-04-23T12:03:04.943Z,97576.71
2023-04-23T12:05:40.779Z,97575.22
2023-04-23T12:08:12.071Z,97574.52
2023-04-23T12:10:46.226Z,97573.61
2023-04-23T12:13:23.717Z,97572.43
2023-04-23T12:15:56.811Z,97568.23
2023-04-23T12:18:39.553Z,97573.33
2023-04-23T12:21:13.502Z,97566.52
2023-04-23T12:23:45.322Z,97565.77
2023-04-23T12:26:16.087Z,97561.88
2023-04-23T12:28:48.129Z,97562.36
2023-04-23T12:31:30.586Z,97561.21
2023-04-23T12:34:07.167Z,97558.08
2023-04-23T12:36:37.940Z,97553.38
2023-04-23T12:39:22.467Z,97549.32
2023-04-23T12:41:55.495Z,97551.75
2023-04-23T12:44:24.161Z,97547.16
2023-04-23T12:46:58.219Z,97543.90
2023-04-23T12:49:27.520Z,97542.04
2023-04-23T12:52:06.412Z,97537.80
2023-04-23T12:54:40.009Z,97531.75
2023-04-23T12:57:12.173Z,97524.39
2023-04-23T12:59:40.631Z,97521.80
2023-04-23T13:02:09.884Z,97518.38
2023-04-23T13:04:38.760Z,97514.89
2023-04-23T13:07:07.201Z,97509.98
2023-04-23T13:09:36.215Z,97503.70
2023-04-23T13:12:04.905Z,97503.04
2023-04-23T13:14:33.242Z,97500.71
2023-04-23T13:17:01.552Z,97499.15
2023-04-23T13:19:30.150Z,97499.23
2023-04-23T13:21:58.664Z,97498.70
2023-04-23T13:24:27.070Z,97500.14
2023-04-23T13:26:56.401Z,97497.60
2023-04-23T13:29:27.669Z,97493.88
2023-04-23T13:32:00.586Z,97487.03
2023-04-23T13:34:30.915Z,97480.34
2023-04-23T13:37:00.556Z,97476.63
2023-04-23T13:39:36.389Z,97476.52
2023-04-23T13:42:09.521Z,97477.27
2023-04-23T13:44:39.636Z,97475.52
2023-04-23T13:47:08.594Z,97477.15
2023-04-23T13:49:39.896Z,97475.20
2023-04-23T13:52:09.281Z,97476.95
2023-04-23T13:54:38.934Z,97475.88
2023-04-23T13:57:07.510Z,97467.25
2023-04-23T13:59:36.229Z,97470.50
2023-04-23T14:02:04.686Z,97463.77
2023-04-23T14:04:33.220Z,97458.29
2023-04-23T14:07:04.218Z,97458.35
2023-04-23T14:09:32.955Z,97462.23
2023-04-23T14:12:01.811Z,97462.19
2023-04-23T14:14:30.402Z,97460.39
2023-04-23T14:17:00.483Z,97455.02
2023-04-23T14:19:30.541Z,97452.14
2023-04-23T14:21:59.121Z,97450.27
2023-04-23T14:24:37.540Z,97448.48
2023-04-23T14:27:06.094Z,97450.73
2023-04-23T14:29:46.522Z,97454.77
2023-04-23T14:32:14.940Z,97449.34
2023-04-23T14:34:44.238Z,97447.65
2023-04-23T14:37:14.513Z,97446.91
2023-04-23T14:39:49.610Z,97444.94
2023-04-23T14:42:28.046Z,97440.06
2023-04-23T14:45:05.327Z,97442.01
2023-04-23T14:47:33.960Z,97440.13
2023-04-23T14:50:02.416Z,97443.36
2023-04-23T14:52:31.768Z,97443.32
2023-04-23T14:55:00.409Z,97437.80
2023-04-23T14:57:28.924Z,97439.41
2023-04-23T14:59:57.362Z,97440.19
2023-04-23T15:02:29.377Z,97435.96
2023-04-23T15:04:57.924Z,97440.56
2023-04-23T15:07:26.937Z,97438.94
2023-04-23T15:09:55.650Z,97439.95
2023-04-23T15:12:48.382Z,97438.22
2023-04-23T15:15:43.023Z,97438.00
2023-04-23T15:18:14.490Z,97436.17
2023-04-23T15:20:44.540Z,97434.90
2023-04-23T15:23:12.795Z,97437.91
2023-04-23T15:25:41.199Z,97437.98
2023-04-23T15:28:10.137Z,97434.31
2023-04-23T15:30:39.865Z,97431.19
2023-04-23T15:33:08.141Z,97430.65
2023-04-23T15:35:36.419Z,97429.43
2023-04-23T15:38:04.614Z,97424.74
2023-04-23T15:40:33.706Z,97421.98
2023-04-23T15:43:02.142Z,97418.11
2023-04-23T15:45:30.757Z,97419.52
2023-04-23T15:47:59.024Z,97417.47
2023-04-23T15:50:27.521Z,97419.45
2023-04-23T15:52:58.486Z,97415.95
2023-04-23T15:55:26.693Z,97415.33
2023-04-23T15:57:55.207Z,97413.62
2023-04-23T16:00:24.729Z,97416.15
2023-04-23T16:02:53.113Z,97420.46
2023-04-23T16:05:21.553Z,97422.96
2023-04-23T16:07:49.905Z,97427.15
2023-04-23T16:10:18.120Z,97428.22
2023-04-23T16:12:47.997Z,97432.81
2023-04-23T16:15:16.303Z,97429.27
2023-04-23T16:17:44.709Z,97430.77
2023-04-23T16:20:13.109Z,97429.46
2023-04-23T16:22:41.441Z,97432.36
2023-04-23T16:25:09.938Z,97431.11
2023-04-23T16:27:38.234Z,97425.14
2023-04-23T16:30:07.206Z,97424.98
2023-04-23T16:32:36.339Z,97425.52
2023-04-23T16:35:05.261Z,97424.59
2023-04-23T16:37:33.583Z,97423.20
2023-04-23T16:40:02.367Z,97422.92
2023-04-23T16:42:30.541Z,97425.77
2023-04-23T16:44:58.699Z,97426.31
2023-04-23T16:47:27.170Z,97427.48
2023-04-23T16:49:55.622Z,97426.50
2023-04-23T16:52:24.020Z,97425.50
2023-04-23T16:54:52.278Z,97424.03
2023-04-23T16:57:20.575Z,97422.95
2023-04-23T16:59:48.928Z,97420.14
2023-04-23T17:02:17.191Z,97419.35
2023-04-23T17:04:45.867Z,97418.77
2023-04-23T17:07:14.598Z,97421.23
2023-04-23T17:09:43.535Z,97423.40
2023-04-23T17:12:12.301Z,97421.41
2023-04-23T17:14:40.660Z,97423.77
2023-04-23T17:17:09.142Z,97423.56
2023-04-23T17:19:37.418Z,97420.38
2023-04-23T17:22:07.924Z,97421.41
2023-04-23T17:24:37.737Z,97423.66
2023-04-23T17:27:07.468Z,97425.30
2023-04-23T17:29:35.973Z,97424.11
2023-04-23T17:32:04.502Z,97423.66
2023-04-23T17:34:34.904Z,97424.17
2023-04-23T17:37:03.114Z,97423.27
2023-04-23T17:39:31.300Z,97428.17
2023-04-23T17:41:59.499Z,97427.45
2023-04-23T17:44:27.688Z,97430.05
2023-04-23T17:46:56.211Z,97429.30
2023-04-23T17:49:24.521Z,97429.73
2023-04-23T17:51:52.681Z,97432.29
2023-04-23T17:54:21.232Z,97432.02
2023-04-23T17:56:49.343Z,97435.32
2023-04-23T17:59:17.860Z,97439.97
2023-04-23T18:01:46.152Z,97447.08
2023-04-23T18:04:17.333Z,97452.13
2023-04-23T18:06:46.150Z,97455.80
2023-04-23T18:09:14.158Z,97462.23
2023-04-23T18:11:42.403Z,97466.89
2023-04-23T18:14:10.959Z,97466.28
2023-04-23T18:16:39.261Z,97466.08
2023-04-23T18:19:07.475Z,97466.67
2023-04-23T18:21:35.966Z,97470.98
2023-04-23T18:24:04.324Z,97471.69
2023-04-23T18:26:32.713Z,97470.50
2023-04-23T18:29:01.513Z,97470.91
2023-04-23T18:31:29.881Z,97472.96
2023-04-23T18:34:04.034Z,97473.63
2023-04-23T18:36:34.064Z,97473.38
2023-04-23T18:39:02.178Z,97470.38
2023-04-23T18:41:32.699Z,97472.85
2023-04-23T18:44:02.680Z,97478.89
2023-04-23T18:46:31.551Z,97480.61
2023-04-23T18:49:27.951Z,97478.50
2023-04-23T18:51:56.247Z,97477.02
2023-04-23T18:54:26.034Z,97479.30
2023-04-23T18:56:54.791Z,97479.63
2023-04-23T18:59:23.292Z,97478.90
2023-04-23T19:01:52.201Z,97472.40
2023-04-23T19:04:21.531Z,97469.96
2023-04-23T19:06:49.999Z,97468.71
2023-04-23T19:09:18.167Z,97474.98
2023-04-23T19:11:46.931Z,97478.50
2023-04-23T19:14:16.259Z,97479.60
2023-04-23T19:16:44.719Z,97480.48
2023-04-23T19:19:13.716Z,97477.74
2023-04-23T19:21:41.988Z,97474.84
2023-04-23T19:24:10.182Z,97475.02
2023-04-23T19:26:38.405Z,97475.96
2023-04-23T19:29:06.496Z,97480.95
2023-04-23T19:31:34.754Z,97479.48
2023-04-23T19:34:02.967Z,97487.38
2023-04-23T19:36:31.147Z,97485.14
2023-04-23T19:38:59.445Z,97483.90
2023-04-23T19:41:27.699Z,97482.26
2023-04-23T19:43:56.191Z,97480.70
2023-04-23T19:46:24.809Z,97479.28
2023-04-23T19:48:53.419Z,97481.02
2023-04-23T19:51:27.971Z,97478.16
2023-04-23T19:53:56.354Z,97478.12
2023-04-23T19:56:24.538Z,97474.55
2023-04-23T19:58:52.777Z,97478.20
2023-04-23T20:01:21.090Z,97478.60
2023-04-23T20:03:52.027Z,97473.72
2023-04-23T20:06:21.216Z,97471.13
2023-04-23T20:09:07.608Z,97470.67
2023-04-23T20:11:36.117Z,97463.19
2023-04-23T20:14:04.280Z,97464.83
2023-04-23T20:16:32.689Z,97460.95
2023-04-23T20:19:01.900Z,97465.11
2023-04-23T20:21:30.069Z,97460.61
2023-04-23T20:23:58.274Z,97459.17
2023-04-23T20:26:26.600Z,97453.59
2023-04-23T20:28:54.909Z,97456.18
2023-04-23T20:31:23.230Z,97456.03
2023-04-23T20:33:51.440Z,97454.35
2023-04-23T20:36:20.188Z,97456.83
2023-04-23T20:38:48.577Z,97457.91
2023-04-23T20:41:16.751Z,97454.81
2023-04-23T20:43:45.070Z,97449.30
2023-04-23T20:46:13.329Z,97448.38
2023-04-23T20:48:43.484Z,97449.00
2023-04-23T20:51:11.813Z,97450.15
2023-04-23T20:53:39.975Z,97452.36
2023-04-23T20:56:08.090Z,97455.42
2023-04-23T20:58:36.725Z,97458.11
2023-04-23T21:01:07.429Z,97459.64
2023-04-23T21:03:37.085Z,97457.27
2023-04-23T21:06:07.163Z,97453.42
2023-04-23T21:08:38.888Z,97449.92
2023-04-23T21:11:14.616Z,97453.52
2023-04-23T21:13:43.324Z,97449.93
2023-04-23T21:16:11.698Z,97447.65
2023-04-23T21:18:41.463Z,97450.48
2023-04-23T21:21:09.765Z,97451.27
2023-04-23T21:23:38.049Z,97450.34
2023-04-23T21:26:07.686Z,97449.35
2023-04-23T21:28:37.054Z,97446.98
2023-04-23T21:31:14.104Z,97443.23
2023-04-23T21:33:42.245Z,97442.70
2023-04-23T21:36:10.902Z,97443.31
2023-04-23T21:38:39.361Z,97440.64
2023-04-23T21:41:07.747Z,97438.52
2023-04-23T21:43:36.004Z,97440.11
2023-04-23T21:46:04.305Z,97439.52
2023-04-23T21:48:33.507Z,97439.98
2023-04-23T21:51:02.399Z,97439.30
2023-04-23T21:53:30.602Z,97432.80
2023-04-23T21:55:59.128Z,97429.98
2023-04-23T21:58:27.920Z,97428.30
2023-04-23T22:00:56.128Z,97429.92
2023-04-23T22:03:36.391Z,97428.79
2023-04-23T22:06:07.397Z,97423.74
2023-04-23T22:08:38.351Z,97422.14
2023-04-23T22:11:08.227Z,97420.02
2023-04-23T22:13:36.460Z,97415.66
2023-04-23T22:16:13.394Z,97417.73
2023-04-23T22:18:48.861Z,97425.85
2023-04-23T22:21:17.125Z,97426.84
2023-04-23T22:23:45.559Z,97423.40
2023-04-23T22:26:13.894Z,97424.64
2023-04-23T22:28:43.973Z,97423.04
2023-04-23T22:31:12.320Z,97425.17
2023-04-23T22:33:40.762Z,97424.64
2023-04-23T22:36:08.928Z,97421.20
2023-04-23T22:38:37.241Z,97418.06
2023-04-23T22:41:05.599Z,97414.84
2023-04-23T22:43:33.715Z,97412.40
2023-04-23T22:46:02.565Z,97411.11
2023-04-23T22:48:30.942Z,97406.66
2023-04-23T22:50:59.268Z,97403.30
2023-04-23T22:53:27.493Z,97403.76
2023-04-23T22:55:56.965Z,97401.08
2023-04-23T22:58:25.481Z,97397.55
2023-04-23T23:00:53.801Z,97397.55
2023-04-23T23:03:22.360Z,97400.75
2023-04-23T23:05:50.863Z,97402.12
2023-04-23T23:08:19.022Z,97396.37
2023-04-23T23:10:47.239Z,97391.79
2023-04-23T23:13:15.462Z,97389.33
2023-04-23T23:15:43.749Z,97384.13
2023-04-23T23:18:12.481Z,97380.22
2023-04-23T23:20:44.644Z,97382.04
2023-04-23T23:23:12.825Z,97377.30
2023-04-23T23:25:41.099Z,97377.60
2023-04-23T23:28:09.308Z,97373.46
2023-04-23T23:30:37.637Z,97370.92
2023-04-23T23:33:06.201Z,97373.95
2023-04-23T23:35:34.482Z,97375.00
2023-04-23T23:38:02.699Z,97372.98
2023-04-23T23:40:31.118Z,97365.86
2023-04-23T23:42:59.291Z,97361.73
2023-04-23T23:45:27.576Z,97355.45
2023-04-23T23:47:55.905Z,97356.95
2023-04-23T23:50:24.214Z,97361.30
2023-04-23T23:52:53.893Z,97364.36
2023-04-23T23:55:22.196Z,97361.77
2023-04-23T23:57:51.264Z,97358.48
